sensor_id;sensor_type;location;lat;lon;timestamp;P1;durP1;ratioP1;P2;durP2;ratioP2
76357;SDS011;65185;21.060;105.826;2023-05-16T00:02:13;81.03;;;41.72;;
76357;SDS011;65185;21.060;105.826;2023-05-16T00:04:40;73.10;;;39.63;;
76357;SDS011;65185;21.060;105.826;2023-05-16T00:07:10;75.78;;;41.47;;
76357;SDS011;65185;21.060;105.826;2023-05-16T00:09:37;74.53;;;41.05;;
76357;SDS011;65185;21.060;105.826;2023-05-16T00:12:03;87.13;;;46.10;;
76357;SDS011;65185;21.060;105.826;2023-05-16T00:14:30;71.60;;;40.70;;
76357;SDS011;65185;21.060;105.826;2023-05-16T00:16:57;72.05;;;40.08;;
76357;SDS011;65185;21.060;105.826;2023-05-16T00:19:23;85.22;;;46.30;;
76357;SDS011;65185;21.060;105.826;2023-05-16T00:21:51;79.45;;;44.28;;
76357;SDS011;65185;21.060;105.826;2023-05-16T00:24:17;83.63;;;47.28;;
76357;SDS011;65185;21.060;105.826;2023-05-16T00:26:44;81.05;;;44.55;;
76357;SDS011;65185;21.060;105.826;2023-05-16T00:29:10;81.68;;;45.58;;
76357;SDS011;65185;21.060;105.826;2023-05-16T00:31:37;79.93;;;45.67;;
76357;SDS011;65185;21.060;105.826;2023-05-16T00:34:03;86.70;;;46.78;;
76357;SDS011;65185;21.060;105.826;2023-05-16T00:36:30;85.35;;;49.00;;
76357;SDS011;65185;21.060;105.826;2023-05-16T00:38:56;81.93;;;47.35;;
76357;SDS011;65185;21.060;105.826;2023-05-16T00:41:23;83.32;;;48.30;;
76357;SDS011;65185;21.060;105.826;2023-05-16T00:43:50;87.10;;;50.08;;
76357;SDS011;65185;21.060;105.826;2023-05-16T00:46:17;75.00;;;42.85;;
76357;SDS011;65185;21.060;105.826;2023-05-16T00:48:43;76.72;;;45.33;;
76357;SDS011;65185;21.060;105.826;2023-05-16T00:51:10;84.60;;;48.00;;
76357;SDS011;65185;21.060;105.826;2023-05-16T00:53:36;78.63;;;44.53;;
76357;SDS011;65185;21.060;105.826;2023-05-16T00:56:04;75.18;;;44.80;;
76357;SDS011;65185;21.060;105.826;2023-05-16T00:58:31;71.28;;;43.35;;
76357;SDS011;65185;21.060;105.826;2023-05-16T01:00:58;79.93;;;46.20;;
76357;SDS011;65185;21.060;105.826;2023-05-16T01:03:28;62.45;;;39.00;;
76357;SDS011;65185;21.060;105.826;2023-05-16T01:05:54;70.35;;;43.10;;
76357;SDS011;65185;21.060;105.826;2023-05-16T01:08:22;64.43;;;38.95;;
76357;SDS011;65185;21.060;105.826;2023-05-16T01:10:52;74.43;;;45.38;;
76357;SDS011;65185;21.060;105.826;2023-05-16T01:13:54;72.05;;;44.58;;
76357;SDS011;65185;21.060;105.826;2023-05-16T01:16:29;74.93;;;46.28;;
76357;SDS011;65185;21.060;105.826;2023-05-16T01:22:11;78.38;;;48.13;;
76357;SDS011;65185;21.060;105.826;2023-05-16T01:25:05;83.68;;;49.33;;
76357;SDS011;65185;21.060;105.826;2023-05-16T01:27:38;80.90;;;48.17;;
76357;SDS011;65185;21.060;105.826;2023-05-16T01:30:16;70.03;;;44.22;;
76357;SDS011;65185;21.060;105.826;2023-05-16T01:32:43;73.97;;;44.58;;
76357;SDS011;65185;21.060;105.826;2023-05-16T01:35:11;74.05;;;46.17;;
76357;SDS011;65185;21.060;105.826;2023-05-16T01:37:41;77.90;;;47.22;;
76357;SDS011;65185;21.060;105.826;2023-05-16T01:40:22;82.32;;;47.58;;
76357;SDS011;65185;21.060;105.826;2023-05-16T01:42:58;75.75;;;45.65;;
76357;SDS011;65185;21.060;105.826;2023-05-16T01:45:31;71.93;;;44.60;;
76357;SDS011;65185;21.060;105.826;2023-05-16T01:50:33;79.03;;;47.67;;
76357;SDS011;65185;21.060;105.826;2023-05-16T01:53:07;70.88;;;43.33;;
76357;SDS011;65185;21.060;105.826;2023-05-16T01:58:13;57.50;;;36.60;;
76357;SDS011;65185;21.060;105.826;2023-05-16T02:00:42;53.80;;;36.78;;
76357;SDS011;65185;21.060;105.826;2023-05-16T02:03:09;61.50;;;39.55;;
76357;SDS011;65185;21.060;105.826;2023-05-16T02:05:35;54.05;;;37.25;;
76357;SDS011;65185;21.060;105.826;2023-05-16T02:08:02;59.97;;;39.45;;
76357;SDS011;65185;21.060;105.826;2023-05-16T02:10:29;52.33;;;35.08;;
76357;SDS011;65185;21.060;105.826;2023-05-16T02:12:56;57.63;;;36.80;;
76357;SDS011;65185;21.060;105.826;2023-05-16T02:15:22;53.13;;;35.63;;
76357;SDS011;65185;21.060;105.826;2023-05-16T02:17:49;52.80;;;35.78;;
76357;SDS011;65185;21.060;105.826;2023-05-16T02:20:15;53.63;;;35.70;;
76357;SDS011;65185;21.060;105.826;2023-05-16T02:22:42;50.78;;;33.85;;
76357;SDS011;65185;21.060;105.826;2023-05-16T02:25:08;54.83;;;37.25;;
76357;SDS011;65185;21.060;105.826;2023-05-16T02:27:35;53.78;;;33.85;;
76357;SDS011;65185;21.060;105.826;2023-05-16T02:30:01;52.70;;;36.08;;
76357;SDS011;65185;21.060;105.826;2023-05-16T02:32:30;45.60;;;31.17;;
76357;SDS011;65185;21.060;105.826;2023-05-16T02:34:59;51.40;;;33.30;;
76357;SDS011;65185;21.060;105.826;2023-05-16T02:37:26;57.22;;;35.85;;
76357;SDS011;65185;21.060;105.826;2023-05-16T02:39:52;49.00;;;32.50;;
76357;SDS011;65185;21.060;105.826;2023-05-16T02:42:19;53.08;;;33.25;;
76357;SDS011;65185;21.060;105.826;2023-05-16T02:44:45;56.78;;;36.78;;
76357;SDS011;65185;21.060;105.826;2023-05-16T02:47:12;54.67;;;37.50;;
76357;SDS011;65185;21.060;105.826;2023-05-16T02:49:38;57.33;;;37.05;;
76357;SDS011;65185;21.060;105.826;2023-05-16T02:52:05;60.40;;;38.20;;
76357;SDS011;65185;21.060;105.826;2023-05-16T02:54:32;58.25;;;37.00;;
76357;SDS011;65185;21.060;105.826;2023-05-16T02:56:58;49.85;;;33.00;;
76357;SDS011;65185;21.060;105.826;2023-05-16T02:59:25;56.38;;;36.40;;
76357;SDS011;65185;21.060;105.826;2023-05-16T03:01:51;61.00;;;38.92;;
76357;SDS011;65185;21.060;105.826;2023-05-16T03:04:18;59.05;;;39.10;;
76357;SDS011;65185;21.060;105.826;2023-05-16T03:06:44;59.70;;;35.75;;
76357;SDS011;65185;21.060;105.826;2023-05-16T03:09:11;48.70;;;32.35;;
76357;SDS011;65185;21.060;105.826;2023-05-16T03:11:37;48.15;;;30.60;;
76357;SDS011;65185;21.060;105.826;2023-05-16T03:14:03;49.45;;;33.20;;
76357;SDS011;65185;21.060;105.826;2023-05-16T03:16:30;46.40;;;32.83;;
76357;SDS011;65185;21.060;105.826;2023-05-16T03:18:57;57.90;;;39.10;;
76357;SDS011;65185;21.060;105.826;2023-05-16T03:21:23;59.40;;;38.80;;
76357;SDS011;65185;21.060;105.826;2023-05-16T03:23:50;54.35;;;37.17;;
76357;SDS011;65185;21.060;105.826;2023-05-16T03:26:16;57.65;;;36.92;;
76357;SDS011;65185;21.060;105.826;2023-05-16T03:28:43;51.95;;;34.38;;
76357;SDS011;65185;21.060;105.826;2023-05-16T03:31:09;49.08;;;31.52;;
76357;SDS011;65185;21.060;105.826;2023-05-16T03:33:36;57.88;;;40.20;;
76357;SDS011;65185;21.060;105.826;2023-05-16T03:36:02;62.13;;;39.33;;
76357;SDS011;65185;21.060;105.826;2023-05-16T03:38:29;56.42;;;37.85;;
76357;SDS011;65185;21.060;105.826;2023-05-16T03:40:56;48.83;;;32.30;;
76357;SDS011;65185;21.060;105.826;2023-05-16T03:43:23;55.13;;;37.28;;
76357;SDS011;65185;21.060;105.826;2023-05-16T03:45:49;50.25;;;33.53;;
76357;SDS011;65185;21.060;105.826;2023-05-16T03:48:16;58.08;;;39.30;;
76357;SDS011;65185;21.060;105.826;2023-05-16T03:50:42;59.10;;;38.65;;
76357;SDS011;65185;21.060;105.826;2023-05-16T03:53:09;63.00;;;40.40;;
76357;SDS011;65185;21.060;105.826;2023-05-16T03:55:36;59.45;;;40.85;;
76357;SDS011;65185;21.060;105.826;2023-05-16T03:58:02;57.42;;;36.40;;
76357;SDS011;65185;21.060;105.826;2023-05-16T04:00:29;56.30;;;37.80;;
76357;SDS011;65185;21.060;105.826;2023-05-16T04:02:55;48.63;;;33.28;;
76357;SDS011;65185;21.060;105.826;2023-05-16T04:05:22;52.50;;;34.13;;
76357;SDS011;65185;21.060;105.826;2023-05-16T04:07:48;48.35;;;31.88;;
76357;SDS011;65185;21.060;105.826;2023-05-16T04:10:15;46.35;;;31.40;;
76357;SDS011;65185;21.060;105.826;2023-05-16T04:12:41;43.67;;;30.65;;
76357;SDS011;65185;21.060;105.826;2023-05-16T04:15:08;39.47;;;28.90;;
76357;SDS011;65185;21.060;105.826;2023-05-16T04:17:35;38.75;;;27.83;;
76357;SDS011;65185;21.060;105.826;2023-05-16T04:20:02;45.30;;;31.73;;
76357;SDS011;65185;21.060;105.826;2023-05-16T04:22:29;44.63;;;29.52;;
76357;SDS011;65185;21.060;105.826;2023-05-16T04:24:55;50.30;;;31.95;;
76357;SDS011;65185;21.060;105.826;2023-05-16T04:27:22;50.72;;;33.47;;
76357;SDS011;65185;21.060;105.826;2023-05-16T04:29:49;51.40;;;32.80;;
76357;SDS011;65185;21.060;105.826;2023-05-16T04:32:16;52.00;;;34.80;;
76357;SDS011;65185;21.060;105.826;2023-05-16T04:34:42;55.38;;;37.15;;
76357;SDS011;65185;21.060;105.826;2023-05-16T04:37:11;46.13;;;30.67;;
76357;SDS011;65185;21.060;105.826;2023-05-16T04:39:37;42.22;;;29.52;;
76357;SDS011;65185;21.060;105.826;2023-05-16T04:42:04;42.38;;;28.25;;
76357;SDS011;65185;21.060;105.826;2023-05-16T04:44:31;37.75;;;27.65;;
76357;SDS011;65185;21.060;105.826;2023-05-16T04:46:58;44.38;;;27.52;;
76357;SDS011;65185;21.060;105.826;2023-05-16T04:49:25;38.05;;;27.23;;
76357;SDS011;65185;21.060;105.826;2023-05-16T04:51:51;43.25;;;29.30;;
76357;SDS011;65185;21.060;105.826;2023-05-16T04:54:17;40.45;;;29.33;;
76357;SDS011;65185;21.060;105.826;2023-05-16T04:56:44;43.55;;;28.48;;
76357;SDS011;65185;21.060;105.826;2023-05-16T04:59:10;39.55;;;27.33;;
76357;SDS011;65185;21.060;105.826;2023-05-16T05:01:37;40.85;;;27.75;;
76357;SDS011;65185;21.060;105.826;2023-05-16T05:04:03;42.55;;;27.75;;
76357;SDS011;65185;21.060;105.826;2023-05-16T05:06:30;41.75;;;28.48;;
76357;SDS011;65185;21.060;105.826;2023-05-16T05:08:56;38.42;;;26.10;;
76357;SDS011;65185;21.060;105.826;2023-05-16T05:11:23;39.22;;;26.48;;
76357;SDS011;65185;21.060;105.826;2023-05-16T05:13:51;35.15;;;25.05;;
76357;SDS011;65185;21.060;105.826;2023-05-16T05:16:17;29.85;;;22.35;;
76357;SDS011;65185;21.060;105.826;2023-05-16T05:18:44;29.08;;;20.95;;
76357;SDS011;65185;21.060;105.826;2023-05-16T05:21:10;28.40;;;20.52;;
76357;SDS011;65185;21.060;105.826;2023-05-16T05:23:37;33.25;;;20.67;;
76357;SDS011;65185;21.060;105.826;2023-05-16T05:26:03;36.92;;;20.63;;
76357;SDS011;65185;21.060;105.826;2023-05-16T05:28:30;28.95;;;19.23;;
76357;SDS011;65185;21.060;105.826;2023-05-16T05:30:57;28.95;;;20.20;;
76357;SDS011;65185;21.060;105.826;2023-05-16T05:33:26;32.80;;;20.60;;
76357;SDS011;65185;21.060;105.826;2023-05-16T05:39:16;30.10;;;19.73;;
76357;SDS011;65185;21.060;105.826;2023-05-16T05:41:43;24.25;;;18.05;;
76357;SDS011;65185;21.060;105.826;2023-05-16T05:44:10;24.20;;;18.73;;
76357;SDS011;65185;21.060;105.826;2023-05-16T05:46:37;22.25;;;17.15;;
76357;SDS011;65185;21.060;105.826;2023-05-16T05:49:03;27.55;;;19.48;;
76357;SDS011;65185;21.060;105.826;2023-05-16T05:51:30;26.55;;;18.40;;
76357;SDS011;65185;21.060;105.826;2023-05-16T05:53:57;26.08;;;18.50;;
76357;SDS011;65185;21.060;105.826;2023-05-16T05:56:23;28.70;;;18.65;;
76357;SDS011;65185;21.060;105.826;2023-05-16T05:58:50;27.40;;;18.48;;
76357;SDS011;65185;21.060;105.826;2023-05-16T06:01:17;27.88;;;18.95;;
76357;SDS011;65185;21.060;105.826;2023-05-16T06:03:45;30.70;;;20.25;;
76357;SDS011;65185;21.060;105.826;2023-05-16T06:06:12;31.25;;;19.73;;
76357;SDS011;65185;21.060;105.826;2023-05-16T06:08:39;32.78;;;21.13;;
76357;SDS011;65185;21.060;105.826;2023-05-16T06:11:06;30.77;;;20.40;;
76357;SDS011;65185;21.060;105.826;2023-05-16T06:13:33;32.03;;;20.70;;
76357;SDS011;65185;21.060;105.826;2023-05-16T06:15:59;27.98;;;18.48;;
76357;SDS011;65185;21.060;105.826;2023-05-16T06:18:26;31.70;;;18.95;;
76357;SDS011;65185;21.060;105.826;2023-05-16T06:20:52;29.25;;;19.50;;
76357;SDS011;65185;21.060;105.826;2023-05-16T06:23:19;27.20;;;18.88;;
76357;SDS011;65185;21.060;105.826;2023-05-16T06:25:46;30.30;;;18.80;;
76357;SDS011;65185;21.060;105.826;2023-05-16T06:28:12;26.70;;;19.55;;
76357;SDS011;65185;21.060;105.826;2023-05-16T06:30:39;28.50;;;18.05;;
76357;SDS011;65185;21.060;105.826;2023-05-16T06:33:05;23.77;;;18.08;;
76357;SDS011;65185;21.060;105.826;2023-05-16T06:35:32;30.40;;;20.85;;
76357;SDS011;65185;21.060;105.826;2023-05-16T06:37:58;32.13;;;20.88;;
76357;SDS011;65185;21.060;105.826;2023-05-16T06:40:24;29.08;;;19.33;;
76357;SDS011;65185;21.060;105.826;2023-05-16T06:42:51;27.20;;;18.80;;
76357;SDS011;65185;21.060;105.826;2023-05-16T06:45:17;31.50;;;20.15;;
76357;SDS011;65185;21.060;105.826;2023-05-16T06:47:44;25.92;;;19.55;;
76357;SDS011;65185;21.060;105.826;2023-05-16T06:50:10;23.77;;;18.52;;
76357;SDS011;65185;21.060;105.826;2023-05-16T06:52:37;26.98;;;18.50;;
76357;SDS011;65185;21.060;105.826;2023-05-16T06:55:03;24.70;;;18.70;;
76357;SDS011;65185;21.060;105.826;2023-05-16T06:57:30;32.10;;;19.80;;
76357;SDS011;65185;21.060;105.826;2023-05-16T06:59:56;27.13;;;19.38;;
76357;SDS011;65185;21.060;105.826;2023-05-16T07:02:23;30.08;;;18.83;;
76357;SDS011;65185;21.060;105.826;2023-05-16T07:04:50;26.33;;;19.48;;
76357;SDS011;65185;21.060;105.826;2023-05-16T07:07:16;23.10;;;17.85;;
76357;SDS011;65185;21.060;105.826;2023-05-16T07:09:42;24.40;;;18.40;;
76357;SDS011;65185;21.060;105.826;2023-05-16T07:12:10;25.40;;;18.05;;
76357;SDS011;65185;21.060;105.826;2023-05-16T07:14:36;31.67;;;21.75;;
76357;SDS011;65185;21.060;105.826;2023-05-16T07:17:03;23.73;;;18.40;;
76357;SDS011;65185;21.060;105.826;2023-05-16T07:19:29;32.03;;;19.35;;
76357;SDS011;65185;21.060;105.826;2023-05-16T07:21:56;29.92;;;19.92;;
76357;SDS011;65185;21.060;105.826;2023-05-16T07:24:31;24.30;;;18.95;;
76357;SDS011;65185;21.060;105.826;2023-05-16T07:26:57;29.30;;;19.35;;
76357;SDS011;65185;21.060;105.826;2023-05-16T07:29:24;23.90;;;18.85;;
76357;SDS011;65185;21.060;105.826;2023-05-16T07:31:50;25.55;;;18.05;;
76357;SDS011;65185;21.060;105.826;2023-05-16T07:34:17;23.88;;;17.55;;
76357;SDS011;65185;21.060;105.826;2023-05-16T07:36:43;26.00;;;19.35;;
76357;SDS011;65185;21.060;105.826;2023-05-16T07:39:10;32.40;;;19.20;;
76357;SDS011;65185;21.060;105.826;2023-05-16T07:41:36;23.67;;;17.00;;
76357;SDS011;65185;21.060;105.826;2023-05-16T07:44:02;26.92;;;18.50;;
76357;SDS011;65185;21.060;105.826;2023-05-16T07:46:29;23.45;;;16.10;;
76357;SDS011;65185;21.060;105.826;2023-05-16T07:48:55;23.27;;;15.85;;
76357;SDS011;65185;21.060;105.826;2023-05-16T07:51:22;21.70;;;15.77;;
76357;SDS011;65185;21.060;105.826;2023-05-16T07:53:48;25.25;;;16.80;;
76357;SDS011;65185;21.060;105.826;2023-05-16T07:56:16;22.83;;;16.85;;
76357;SDS011;65185;21.060;105.826;2023-05-16T07:58:42;27.85;;;18.85;;
76357;SDS011;65185;21.060;105.826;2023-05-16T08:01:09;26.02;;;18.73;;
76357;SDS011;65185;21.060;105.826;2023-05-16T08:03:36;31.85;;;18.98;;
76357;SDS011;65185;21.060;105.826;2023-05-16T08:06:02;26.55;;;17.98;;
76357;SDS011;65185;21.060;105.826;2023-05-16T08:08:29;23.42;;;18.70;;
76357;SDS011;65185;21.060;105.826;2023-05-16T08:10:55;26.77;;;16.33;;
76357;SDS011;65185;21.060;105.826;2023-05-16T08:13:22;24.48;;;16.88;;
76357;SDS011;65185;21.060;105.826;2023-05-16T08:15:48;24.52;;;17.48;;
76357;SDS011;65185;21.060;105.826;2023-05-16T08:18:15;26.17;;;18.17;;
76357;SDS011;65185;21.060;105.826;2023-05-16T08:20:41;24.83;;;18.23;;
76357;SDS011;65185;21.060;105.826;2023-05-16T08:23:08;25.95;;;16.95;;
76357;SDS011;65185;21.060;105.826;2023-05-16T08:25:34;33.03;;;19.05;;
76357;SDS011;65185;21.060;105.826;2023-05-16T08:28:01;28.58;;;18.08;;
76357;SDS011;65185;21.060;105.826;2023-05-16T08:30:27;27.75;;;18.52;;
76357;SDS011;65185;21.060;105.826;2023-05-16T08:32:54;33.50;;;19.17;;
76357;SDS011;65185;21.060;105.826;2023-05-16T08:35:20;28.10;;;19.25;;
76357;SDS011;65185;21.060;105.826;2023-05-16T08:37:47;26.33;;;18.02;;
76357;SDS011;65185;21.060;105.826;2023-05-16T08:40:13;27.63;;;17.55;;
76357;SDS011;65185;21.060;105.826;2023-05-16T08:42:40;27.23;;;17.90;;
76357;SDS011;65185;21.060;105.826;2023-05-16T08:45:07;23.30;;;16.92;;
76357;SDS011;65185;21.060;105.826;2023-05-16T08:47:34;27.00;;;16.98;;
76357;SDS011;65185;21.060;105.826;2023-05-16T08:50:05;24.23;;;16.95;;
76357;SDS011;65185;21.060;105.826;2023-05-16T08:52:34;21.60;;;16.23;;
76357;SDS011;65185;21.060;105.826;2023-05-16T08:55:04;24.67;;;16.70;;
76357;SDS011;65185;21.060;105.826;2023-05-16T08:57:34;28.77;;;17.13;;
76357;SDS011;65185;21.060;105.826;2023-05-16T09:00:01;23.77;;;16.85;;
76357;SDS011;65185;21.060;105.826;2023-05-16T09:02:36;23.45;;;17.05;;
76357;SDS011;65185;21.060;105.826;2023-05-16T09:07:33;22.67;;;15.60;;
76357;SDS011;65185;21.060;105.826;2023-05-16T09:09:59;24.73;;;16.75;;
76357;SDS011;65185;21.060;105.826;2023-05-16T09:12:26;31.65;;;17.63;;
76357;SDS011;65185;21.060;105.826;2023-05-16T09:14:53;23.00;;;17.13;;
76357;SDS011;65185;21.060;105.826;2023-05-16T09:17:20;22.73;;;16.80;;
76357;SDS011;65185;21.060;105.826;2023-05-16T09:19:47;27.33;;;17.13;;
76357;SDS011;65185;21.060;105.826;2023-05-16T09:22:17;23.55;;;17.38;;
76357;SDS011;65185;21.060;105.826;2023-05-16T09:24:44;30.05;;;17.25;;
76357;SDS011;65185;21.060;105.826;2023-05-16T09:27:13;27.23;;;17.85;;
76357;SDS011;65185;21.060;105.826;2023-05-16T09:29:41;28.02;;;17.58;;
76357;SDS011;65185;21.060;105.826;2023-05-16T09:32:12;24.63;;;17.70;;
76357;SDS011;65185;21.060;105.826;2023-05-16T09:34:46;30.02;;;19.33;;
76357;SDS011;65185;21.060;105.826;2023-05-16T09:37:16;39.67;;;26.00;;
76357;SDS011;65185;21.060;105.826;2023-05-16T09:39:47;39.20;;;28.20;;
76357;SDS011;65185;21.060;105.826;2023-05-16T09:42:19;45.75;;;28.48;;
76357;SDS011;65185;21.060;105.826;2023-05-16T09:44:53;42.15;;;28.90;;
76357;SDS011;65185;21.060;105.826;2023-05-16T09:47:21;40.88;;;28.38;;
76357;SDS011;65185;21.060;105.826;2023-05-16T09:49:51;45.38;;;30.08;;
76357;SDS011;65185;21.060;105.826;2023-05-16T09:52:18;44.03;;;29.70;;
76357;SDS011;65185;21.060;105.826;2023-05-16T09:54:46;45.95;;;30.30;;
76357;SDS011;65185;21.060;105.826;2023-05-16T09:57:19;45.10;;;30.40;;
76357;SDS011;65185;21.060;105.826;2023-05-16T09:59:48;44.17;;;30.67;;
76357;SDS011;65185;21.060;105.826;2023-05-16T10:02:15;45.20;;;31.23;;
76357;SDS011;65185;21.060;105.826;2023-05-16T10:04:42;43.15;;;31.10;;
76357;SDS011;65185;21.060;105.826;2023-05-16T10:07:08;48.33;;;30.73;;
76357;SDS011;65185;21.060;105.826;2023-05-16T10:09:38;46.05;;;31.15;;
76357;SDS011;65185;21.060;105.826;2023-05-16T10:12:06;47.42;;;30.40;;
76357;SDS011;65185;21.060;105.826;2023-05-16T10:14:37;46.47;;;31.55;;
76357;SDS011;65185;21.060;105.826;2023-05-16T10:17:06;44.92;;;30.75;;
76357;SDS011;65185;21.060;105.826;2023-05-16T10:19:37;44.78;;;29.83;;
76357;SDS011;65185;21.060;105.826;2023-05-16T10:22:05;46.28;;;31.27;;
76357;SDS011;65185;21.060;105.826;2023-05-16T10:24:50;43.80;;;30.25;;
76357;SDS011;65185;21.060;105.826;2023-05-16T10:27:37;44.17;;;30.77;;
76357;SDS011;65185;21.060;105.826;2023-05-16T10:30:05;42.55;;;28.45;;
76357;SDS011;65185;21.060;105.826;2023-05-16T10:32:34;40.92;;;29.10;;
76357;SDS011;65185;21.060;105.826;2023-05-16T10:35:05;45.92;;;30.23;;
76357;SDS011;65185;21.060;105.826;2023-05-16T10:37:32;42.55;;;29.67;;
76357;SDS011;65185;21.060;105.826;2023-05-16T10:39:59;43.90;;;30.30;;
76357;SDS011;65185;21.060;105.826;2023-05-16T10:42:27;45.72;;;30.35;;
76357;SDS011;65185;21.060;105.826;2023-05-16T10:44:54;42.90;;;29.55;;
76357;SDS011;65185;21.060;105.826;2023-05-16T10:47:33;42.95;;;28.23;;
76357;SDS011;65185;21.060;105.826;2023-05-16T10:50:00;40.03;;;26.98;;
76357;SDS011;65185;21.060;105.826;2023-05-16T10:52:33;46.25;;;28.58;;
76357;SDS011;65185;21.060;105.826;2023-05-16T10:55:01;37.78;;;27.42;;
76357;SDS011;65185;21.060;105.826;2023-05-16T10:57:29;47.63;;;29.60;;
76357;SDS011;65185;21.060;105.826;2023-05-16T11:00:00;45.95;;;29.40;;
76357;SDS011;65185;21.060;105.826;2023-05-16T11:02:32;50.70;;;30.50;;
76357;SDS011;65185;21.060;105.826;2023-05-16T11:05:06;41.28;;;28.23;;
76357;SDS011;65185;21.060;105.826;2023-05-16T11:07:42;41.25;;;27.25;;
76357;SDS011;65185;21.060;105.826;2023-05-16T11:10:13;41.83;;;28.98;;
76357;SDS011;65185;21.060;105.826;2023-05-16T11:12:42;40.70;;;26.92;;
76357;SDS011;65185;21.060;105.826;2023-05-16T11:17:46;42.60;;;29.38;;
76357;SDS011;65185;21.060;105.826;2023-05-16T11:20:26;43.42;;;30.48;;
76357;SDS011;65185;21.060;105.826;2023-05-16T11:25:42;43.20;;;29.05;;
76357;SDS011;65185;21.060;105.826;2023-05-16T11:28:11;48.65;;;32.35;;
76357;SDS011;65185;21.060;105.826;2023-05-16T11:30:48;46.85;;;31.52;;
76357;SDS011;65185;21.060;105.826;2023-05-16T11:33:17;48.33;;;31.95;;
76357;SDS011;65185;21.060;105.826;2023-05-16T11:35:58;47.35;;;31.42;;
76357;SDS011;65185;21.060;105.826;2023-05-16T11:38:29;41.60;;;28.77;;
76357;SDS011;65185;21.060;105.826;2023-05-16T11:41:03;47.58;;;30.80;;
76357;SDS011;65185;21.060;105.826;2023-05-16T11:43:41;45.67;;;30.25;;
76357;SDS011;65185;21.060;105.826;2023-05-16T11:46:13;53.53;;;33.17;;
76357;SDS011;65185;21.060;105.826;2023-05-16T11:48:41;51.20;;;32.13;;
76357;SDS011;65185;21.060;105.826;2023-05-16T11:51:10;43.40;;;30.08;;
76357;SDS011;65185;21.060;105.826;2023-05-16T11:53:39;47.78;;;29.98;;
76357;SDS011;65185;21.060;105.826;2023-05-16T11:56:06;51.92;;;31.48;;
76357;SDS011;65185;21.060;105.826;2023-05-16T11:58:34;43.95;;;30.75;;
76357;SDS011;65185;21.060;105.826;2023-05-16T12:01:03;44.13;;;30.00;;
76357;SDS011;65185;21.060;105.826;2023-05-16T12:03:30;46.20;;;30.90;;
76357;SDS011;65185;21.060;105.826;2023-05-16T12:05:59;49.20;;;31.60;;
76357;SDS011;65185;21.060;105.826;2023-05-16T12:08:26;47.45;;;31.17;;
76357;SDS011;65185;21.060;105.826;2023-05-16T12:10:53;48.05;;;32.95;;
76357;SDS011;65185;21.060;105.826;2023-05-16T12:13:21;49.63;;;32.28;;
76357;SDS011;65185;21.060;105.826;2023-05-16T12:15:50;51.22;;;32.92;;
76357;SDS011;65185;21.060;105.826;2023-05-16T12:18:20;56.35;;;35.53;;
76357;SDS011;65185;21.060;105.826;2023-05-16T12:20:48;59.47;;;35.50;;
76357;SDS011;65185;21.060;105.826;2023-05-16T12:23:16;51.83;;;35.00;;
76357;SDS011;65185;21.060;105.826;2023-05-16T12:25:46;56.60;;;34.85;;
76357;SDS011;65185;21.060;105.826;2023-05-16T12:28:13;48.95;;;32.70;;
76357;SDS011;65185;21.060;105.826;2023-05-16T12:30:41;51.08;;;33.10;;
76357;SDS011;65185;21.060;105.826;2023-05-16T12:33:10;48.38;;;33.53;;
76357;SDS011;65185;21.060;105.826;2023-05-16T12:35:39;48.95;;;33.75;;
76357;SDS011;65185;21.060;105.826;2023-05-16T12:38:08;54.97;;;33.65;;
76357;SDS011;65185;21.060;105.826;2023-05-16T12:40:37;58.47;;;34.60;;
76357;SDS011;65185;21.060;105.826;2023-05-16T12:43:13;50.83;;;32.90;;
76357;SDS011;65185;21.060;105.826;2023-05-16T12:45:51;42.10;;;31.27;;
76357;SDS011;65185;21.060;105.826;2023-05-16T12:48:19;46.58;;;30.73;;
76357;SDS011;65185;21.060;105.826;2023-05-16T12:50:46;49.35;;;32.15;;
76357;SDS011;65185;21.060;105.826;2023-05-16T12:53:15;53.53;;;31.40;;
76357;SDS011;65185;21.060;105.826;2023-05-16T12:55:43;42.22;;;30.38;;
76357;SDS011;65185;21.060;105.826;2023-05-16T12:58:11;41.58;;;29.05;;
76357;SDS011;65185;21.060;105.826;2023-05-16T13:00:37;46.80;;;30.95;;
76357;SDS011;65185;21.060;105.826;2023-05-16T13:03:04;43.58;;;29.00;;
76357;SDS011;65185;21.060;105.826;2023-05-16T13:05:32;47.65;;;30.38;;
76357;SDS011;65185;21.060;105.826;2023-05-16T13:08:00;45.30;;;30.63;;
76357;SDS011;65185;21.060;105.826;2023-05-16T13:10:27;39.65;;;30.15;;
76357;SDS011;65185;21.060;105.826;2023-05-16T13:12:54;49.38;;;32.20;;
76357;SDS011;65185;21.060;105.826;2023-05-16T13:17:49;39.92;;;29.00;;
76357;SDS011;65185;21.060;105.826;2023-05-16T13:20:16;43.90;;;29.60;;
76357;SDS011;65185;21.060;105.826;2023-05-16T13:22:43;42.35;;;30.58;;
76357;SDS011;65185;21.060;105.826;2023-05-16T13:25:10;45.65;;;30.38;;
76357;SDS011;65185;21.060;105.826;2023-05-16T13:27:37;49.35;;;31.95;;
76357;SDS011;65185;21.060;105.826;2023-05-16T13:30:04;39.75;;;28.70;;
76357;SDS011;65185;21.060;105.826;2023-05-16T13:32:31;42.53;;;30.45;;
76357;SDS011;65185;21.060;105.826;2023-05-16T13:34:58;43.22;;;31.27;;
76357;SDS011;65185;21.060;105.826;2023-05-16T13:37:25;38.85;;;29.48;;
76357;SDS011;65185;21.060;105.826;2023-05-16T13:39:52;42.47;;;30.95;;
76357;SDS011;65185;21.060;105.826;2023-05-16T13:42:21;48.13;;;31.10;;
76357;SDS011;65185;21.060;105.826;2023-05-16T13:44:48;44.88;;;29.13;;
76357;SDS011;65185;21.060;105.826;2023-05-16T13:47:15;47.72;;;32.65;;
76357;SDS011;65185;21.060;105.826;2023-05-16T13:49:42;48.08;;;31.40;;
76357;SDS011;65185;21.060;105.826;2023-05-16T13:52:09;47.83;;;30.60;;
76357;SDS011;65185;21.060;105.826;2023-05-16T13:54:36;46.85;;;30.45;;
76357;SDS011;65185;21.060;105.826;2023-05-16T13:57:04;44.83;;;30.70;;
76357;SDS011;65185;21.060;105.826;2023-05-16T13:59:32;46.40;;;30.05;;
76357;SDS011;65185;21.060;105.826;2023-05-16T14:01:58;52.33;;;34.08;;
76357;SDS011;65185;21.060;105.826;2023-05-16T14:04:25;48.05;;;31.77;;
76357;SDS011;65185;21.060;105.826;2023-05-16T14:06:52;42.42;;;31.85;;
76357;SDS011;65185;21.060;105.826;2023-05-16T14:09:20;45.13;;;32.10;;
76357;SDS011;65185;21.060;105.826;2023-05-16T14:11:46;41.65;;;30.92;;
76357;SDS011;65185;21.060;105.826;2023-05-16T14:14:13;47.45;;;32.70;;
76357;SDS011;65185;21.060;105.826;2023-05-16T14:16:40;43.53;;;30.48;;
76357;SDS011;65185;21.060;105.826;2023-05-16T14:19:10;46.20;;;31.75;;
76357;SDS011;65185;21.060;105.826;2023-05-16T14:21:37;55.15;;;33.00;;
76357;SDS011;65185;21.060;105.826;2023-05-16T14:24:04;46.78;;;32.22;;